createdAt,value
2023-02-23T00:02:08.640Z,9.63
2023-02-23T00:04:36.329Z,9.02
2023-02-23T00:07:03.875Z,10.50
2023-02-23T00:09:35.544Z,10.45
2023-02-23T00:12:09.014Z,10.52
2023-02-23T00:14:38.117Z,9.00
2023-02-23T00:17:14.499Z,9.73
2023-02-23T00:19:44.201Z,9.27
2023-02-23T00:22:13.031Z,9.80
2023-02-23T00:24:42.531Z,9.35
2023-02-23T00:27:09.825Z,9.07
2023-02-23T00:29:39.986Z,9.45
2023-02-23T00:32:07.782Z,8.52
2023-02-23T00:34:37.872Z,8.45
2023-02-23T00:37:06.187Z,7.72
2023-02-23T00:39:33.433Z,8.30
2023-02-23T00:42:03.455Z,7.65
2023-02-23T00:44:32.393Z,8.32
2023-02-23T00:46:59.522Z,9.07
2023-02-23T00:49:28.117Z,9.13
2023-02-23T00:51:55.694Z,8.00
2023-02-23T00:54:23.965Z,8.10
2023-02-23T00:56:51.614Z,8.05
2023-02-23T00:59:20.272Z,7.38
2023-02-23T01:01:48.731Z,8.05
2023-02-23T01:04:17.001Z,8.30
2023-02-23T01:06:44.556Z,6.80
2023-02-23T01:09:22.469Z,7.10
2023-02-23T01:11:49.399Z,7.85
2023-02-23T01:14:16.177Z,5.95
2023-02-23T01:16:44.244Z,6.25
2023-02-23T01:19:13.334Z,6.38
2023-02-23T01:21:42.411Z,6.50
2023-02-23T01:24:11.826Z,7.32
2023-02-23T01:26:44.890Z,7.05
2023-02-23T01:29:16.498Z,6.18
2023-02-23T01:31:49.563Z,6.30
2023-02-23T01:34:17.701Z,6.97
2023-02-23T01:36:45.897Z,8.10
2023-02-23T01:39:18.517Z,8.52
2023-02-23T01:41:45.762Z,7.43
2023-02-23T01:44:15.907Z,8.13
2023-02-23T01:46:46.015Z,7.90
2023-02-23T01:49:23.104Z,7.75
2023-02-23T01:52:00.113Z,8.00
2023-02-23T01:54:40.024Z,7.20
2023-02-23T01:57:14.248Z,6.63
2023-02-23T01:59:49.183Z,6.78
2023-02-23T02:02:27.617Z,6.63
2023-02-23T02:04:57.464Z,6.70
2023-02-23T02:07:29.594Z,7.10
2023-02-23T02:10:11.506Z,7.38
2023-02-23T02:12:47.430Z,5.43
2023-02-23T02:15:18.393Z,6.85
2023-02-23T02:18:25.660Z,6.75
2023-02-23T02:21:22.621Z,6.90
2023-02-23T02:24:00.694Z,6.57
2023-02-23T02:26:46.652Z,6.70
2023-02-23T02:29:39.700Z,7.55
2023-02-23T02:32:39.347Z,7.18
2023-02-23T02:35:38.021Z,7.70
2023-02-23T02:38:32.010Z,6.97
2023-02-23T02:41:15.549Z,7.35
2023-02-23T02:43:54.699Z,6.57
2023-02-23T02:46:34.917Z,7.53
2023-02-23T02:49:09.703Z,6.63
2023-02-23T02:51:48.918Z,7.25
2023-02-23T02:54:36.444Z,7.30
2023-02-23T02:57:04.656Z,7.38
2023-02-23T02:59:50.996Z,6.93
2023-02-23T03:02:41.344Z,6.78
2023-02-23T03:05:38.107Z,7.20
2023-02-23T03:08:38.528Z,6.95
2023-02-23T03:11:33.020Z,8.07
2023-02-23T03:14:49.101Z,6.88
2023-02-23T03:18:04.613Z,7.70
2023-02-23T03:20:52.736Z,7.68
2023-02-23T03:23:47.269Z,6.68
2023-02-23T03:27:20.284Z,6.63
2023-02-23T03:30:26.302Z,6.95
2023-02-23T03:33:16.958Z,7.28
2023-02-23T03:36:07.747Z,6.85
2023-02-23T03:39:10.473Z,6.75
2023-02-23T03:41:59.717Z,7.00
2023-02-23T03:44:54.912Z,7.10
2023-02-23T03:47:45.812Z,6.28
2023-02-23T03:50:52.431Z,6.68
2023-02-23T03:53:46.144Z,6.50
2023-02-23T03:56:35.229Z,7.22
2023-02-23T03:59:22.708Z,7.15
2023-02-23T04:02:10.810Z,7.38
2023-02-23T04:04:57.386Z,7.35
2023-02-23T04:07:43.178Z,7.75
2023-02-23T04:10:29.921Z,6.75
2023-02-23T04:13:22.696Z,8.30
2023-02-23T04:15:56.256Z,5.25
2023-02-23T04:18:34.145Z,7.72
2023-02-23T04:21:02.305Z,8.50
2023-02-23T04:23:29.513Z,9.45
2023-02-23T04:25:56.974Z,10.35
2023-02-23T04:28:27.974Z,9.77
2023-02-23T04:30:54.933Z,8.60
2023-02-23T04:33:24.892Z,8.32
2023-02-23T04:35:54.021Z,7.90
2023-02-23T04:38:22.261Z,7.43
2023-02-23T04:40:49.516Z,8.30
2023-02-23T04:43:16.328Z,8.95
2023-02-23T04:45:44.676Z,8.73
2023-02-23T04:48:11.459Z,8.43
2023-02-23T04:50:38.484Z,8.73
2023-02-23T04:53:05.570Z,9.23
2023-02-23T04:55:32.887Z,8.20
2023-02-23T04:58:03.127Z,8.35
2023-02-23T05:00:31.485Z,8.13
2023-02-23T05:02:58.355Z,7.43
2023-02-23T05:05:25.468Z,7.80
2023-02-23T05:07:53.606Z,7.53
2023-02-23T05:10:20.611Z,48.60
2023-02-23T05:12:47.664Z,13.45
2023-02-23T05:15:14.829Z,8.43
2023-02-23T05:17:42.002Z,7.95
2023-02-23T05:20:11.324Z,7.90
2023-02-23T05:22:38.252Z,6.43
2023-02-23T05:25:06.314Z,7.30
2023-02-23T05:27:33.269Z,7.78
2023-02-23T05:30:01.142Z,7.63
2023-02-23T05:32:28.581Z,7.53
2023-02-23T05:34:55.511Z,7.93
2023-02-23T05:37:22.364Z,7.80
2023-02-23T05:39:49.217Z,7.35
2023-02-23T05:42:16.114Z,7.57
2023-02-23T05:44:42.929Z,7.93
2023-02-23T05:47:10.763Z,7.80
2023-02-23T05:49:38.483Z,8.27
2023-02-23T05:52:05.488Z,8.02
2023-02-23T05:54:32.364Z,8.38
2023-02-23T05:57:01.663Z,7.72
2023-02-23T05:59:28.614Z,7.32
2023-02-23T06:01:55.799Z,8.40
2023-02-23T06:04:23.320Z,8.27
2023-02-23T06:06:50.320Z,7.80
2023-02-23T06:09:17.171Z,8.20
2023-02-23T06:11:44.562Z,9.88
2023-02-23T06:14:11.624Z,8.93
2023-02-23T06:16:39.341Z,8.02
2023-02-23T06:19:06.291Z,8.48
2023-02-23T06:21:33.693Z,8.93
2023-02-23T06:24:00.997Z,11.15
2023-02-23T06:26:28.595Z,21.95
2023-02-23T06:28:55.927Z,13.70
2023-02-23T06:31:23.211Z,11.15
2023-02-23T06:33:50.859Z,9.48
2023-02-23T06:36:17.715Z,8.40
2023-02-23T06:38:45.027Z,8.43
2023-02-23T06:41:12.959Z,8.52
2023-02-23T06:43:39.776Z,7.53
2023-02-23T06:46:06.875Z,8.90
2023-02-23T06:48:33.755Z,7.97
2023-02-23T06:51:00.593Z,7.80
2023-02-23T06:53:27.959Z,9.45
2023-02-23T06:55:54.800Z,9.10
2023-02-23T06:58:21.584Z,7.95
2023-02-23T07:00:48.554Z,8.57
2023-02-23T07:03:15.417Z,8.43
2023-02-23T07:05:42.174Z,9.57
2023-02-23T07:08:09.012Z,10.18
2023-02-23T07:10:35.780Z,10.43
2023-02-23T07:13:02.586Z,10.38
2023-02-23T07:15:29.641Z,11.02
2023-02-23T07:17:57.449Z,10.20
2023-02-23T07:20:24.325Z,9.45
2023-02-23T07:22:51.995Z,11.48
2023-02-23T07:25:18.818Z,10.65
2023-02-23T07:27:45.631Z,10.27
2023-02-23T07:30:13.716Z,9.13
2023-02-23T07:32:41.341Z,9.52
2023-02-23T07:35:08.626Z,10.73
2023-02-23T07:37:35.439Z,10.88
2023-02-23T07:40:02.955Z,9.82
2023-02-23T07:42:29.701Z,9.75
2023-02-23T07:44:56.541Z,9.85
2023-02-23T07:47:30.732Z,9.48
2023-02-23T07:49:59.711Z,9.93
2023-02-23T07:52:26.736Z,10.55
2023-02-23T07:54:54.134Z,11.18
2023-02-23T07:57:22.865Z,11.27
2023-02-23T07:59:51.555Z,11.18
2023-02-23T08:02:18.515Z,11.82
2023-02-23T08:04:45.394Z,12.95
2023-02-23T08:07:12.144Z,11.38
2023-02-23T08:09:38.994Z,11.30
2023-02-23T08:12:06.138Z,12.32
2023-02-23T08:14:32.900Z,10.95
2023-02-23T08:17:01.509Z,11.15
2023-02-23T08:19:29.379Z,11.20
2023-02-23T08:21:56.824Z,10.52
2023-02-23T08:24:24.621Z,11.90
2023-02-23T08:26:51.474Z,10.98
2023-02-23T08:29:19.044Z,11.43
2023-02-23T08:31:45.954Z,11.93
2023-02-23T08:34:14.087Z,9.43
2023-02-23T08:36:40.912Z,11.43
2023-02-23T08:39:09.948Z,11.32
2023-02-23T08:41:36.880Z,11.75
2023-02-23T08:44:03.891Z,10.95
2023-02-23T08:46:31.003Z,10.52
2023-02-23T08:48:58.075Z,10.60
2023-02-23T08:51:25.484Z,10.38
2023-02-23T08:53:52.518Z,11.07
2023-02-23T08:56:19.546Z,10.18
2023-02-23T08:58:46.314Z,11.20
2023-02-23T09:01:19.737Z,10.43
2023-02-23T09:03:46.741Z,12.43
2023-02-23T09:06:19.132Z,10.45
2023-02-23T09:08:46.320Z,11.40
2023-02-23T09:11:13.104Z,10.63
2023-02-23T09:13:39.906Z,9.88
2023-02-23T09:16:10.343Z,11.00
2023-02-23T09:18:37.800Z,16.38
2023-02-23T09:21:08.458Z,17.88
2023-02-23T09:23:36.334Z,15.48
2023-02-23T09:26:08.345Z,16.77
2023-02-23T09:28:36.249Z,15.88
2023-02-23T09:31:10.057Z,14.93
2023-02-23T09:33:37.155Z,14.00
2023-02-23T09:36:18.944Z,18.25
2023-02-23T09:38:48.800Z,18.20
2023-02-23T09:42:17.184Z,13.05
2023-02-23T09:45:17.611Z,11.95
2023-02-23T09:47:54.095Z,11.70
2023-02-23T09:50:27.234Z,18.20
2023-02-23T09:53:26.695Z,12.73
2023-02-23T09:55:57.379Z,12.52
2023-02-23T09:58:31.364Z,12.52
2023-02-23T10:01:25.358Z,12.40
2023-02-23T10:04:21.136Z,12.63
2023-02-23T10:07:22.957Z,13.70
2023-02-23T10:10:14.238Z,13.10
2023-02-23T10:13:34.088Z,13.98
2023-02-23T10:16:22.845Z,15.73
2023-02-23T10:19:05.707Z,14.80
2023-02-23T10:21:45.945Z,13.50
2023-02-23T10:24:56.975Z,13.57
2023-02-23T10:27:33.179Z,13.85
2023-02-23T10:30:02.738Z,12.90
2023-02-23T10:32:49.269Z,15.07
2023-02-23T10:35:20.975Z,13.18
2023-02-23T10:37:49.357Z,14.50
2023-02-23T10:40:23.319Z,13.90
2023-02-23T10:42:54.669Z,13.85
2023-02-23T10:45:25.946Z,15.07
2023-02-23T10:48:04.764Z,14.23
2023-02-23T10:50:33.602Z,15.73
2023-02-23T10:53:18.733Z,20.42
2023-02-23T10:55:48.781Z,16.85
2023-02-23T10:58:19.539Z,15.85
2023-02-23T11:00:59.457Z,15.23
2023-02-23T11:03:57.713Z,15.70
2023-02-23T11:06:39.507Z,17.42
2023-02-23T11:09:45.843Z,15.85
2023-02-23T11:12:25.672Z,15.68
2023-02-23T11:14:59.048Z,16.52
2023-02-23T11:17:35.838Z,18.38
2023-02-23T11:20:26.498Z,18.90
2023-02-23T11:22:58.980Z,17.65
2023-02-23T11:25:33.657Z,20.38
2023-02-23T11:28:02.485Z,18.63
2023-02-23T11:30:43.432Z,17.65
2023-02-23T11:33:20.387Z,17.85
2023-02-23T11:35:47.337Z,16.40
2023-02-23T11:38:29.710Z,17.35
2023-02-23T11:41:07.408Z,16.70
2023-02-23T11:43:36.011Z,17.70
2023-02-23T11:46:04.052Z,17.40
2023-02-23T11:48:55.112Z,18.67
2023-02-23T11:51:54.339Z,17.75
2023-02-23T11:54:29.033Z,17.10
2023-02-23T11:56:57.908Z,20.13
2023-02-23T11:59:31.554Z,19.05
2023-02-23T12:02:30.770Z,18.50
2023-02-23T12:05:16.995Z,18.40
2023-02-23T12:07:50.454Z,18.80
2023-02-23T12:10:38.681Z,19.38
2023-02-23T12:13:12.095Z,17.20
2023-02-23T12:16:17.001Z,18.35
2023-02-23T12:19:24.816Z,18.60
2023-02-23T12:22:02.877Z,18.40
2023-02-23T12:24:44.528Z,17.27
2023-02-23T12:27:45.320Z,18.25
2023-02-23T12:30:21.045Z,17.20
2023-02-23T12:33:12.339Z,16.63
2023-02-23T12:35:45.510Z,16.50
2023-02-23T12:38:27.829Z,16.38
2023-02-23T12:41:34.035Z,16.77
2023-02-23T12:44:38.230Z,17.25
2023-02-23T12:47:20.445Z,16.20
2023-02-23T12:49:57.448Z,15.95
2023-02-23T12:52:36.837Z,15.93
2023-02-23T12:55:10.207Z,16.88
2023-02-23T12:58:32.667Z,17.40
2023-02-23T13:01:02.146Z,16.13
2023-02-23T13:04:01.318Z,16.67
2023-02-23T13:06:51.402Z,17.52
2023-02-23T13:09:36.035Z,17.75
2023-02-23T13:12:37.249Z,17.38
2023-02-23T13:15:35.794Z,17.77
2023-02-23T13:18:11.950Z,19.70
2023-02-23T13:20:44.902Z,19.20
2023-02-23T13:23:29.763Z,18.35
2023-02-23T13:26:27.233Z,18.13
2023-02-23T13:29:08.681Z,16.90
2023-02-23T13:31:41.771Z,18.33
2023-02-23T13:34:32.275Z,19.40
2023-02-23T13:37:06.079Z,19.50
2023-02-23T13:39:59.650Z,20.42
2023-02-23T13:45:42.622Z,19.17
2023-02-23T13:49:01.749Z,19.48
2023-02-23T13:51:50.307Z,20.33
2023-02-23T13:54:22.862Z,19.83
2023-02-23T13:56:56.762Z,20.08
2023-02-23T13:59:33.124Z,22.63
2023-02-23T14:02:28.896Z,20.85
2023-02-23T14:05:30.748Z,18.75
2023-02-23T14:08:06.243Z,19.38
2023-02-23T14:10:41.350Z,19.60
2023-02-23T14:13:15.175Z,20.10
2023-02-23T14:15:53.656Z,20.13
2023-02-23T14:18:27.920Z,19.27
2023-02-23T14:21:20.114Z,19.80
2023-02-23T14:24:15.081Z,17.60
2023-02-23T14:26:47.840Z,19.73
2023-02-23T14:29:26.271Z,19.40
2023-02-23T14:32:17.990Z,19.63
2023-02-23T14:34:57.051Z,19.85
2023-02-23T14:37:39.398Z,18.50
2023-02-23T14:40:32.484Z,19.20
2023-02-23T14:43:02.916Z,20.67
2023-02-23T14:45:38.238Z,20.88
2023-02-23T14:48:13.497Z,20.67
2023-02-23T14:50:42.068Z,20.75
2023-02-23T14:53:22.305Z,20.30
2023-02-23T14:55:50.734Z,21.27
2023-02-23T14:58:35.721Z,20.23
2023-02-23T15:01:04.085Z,21.52
2023-02-23T15:03:31.215Z,20.13
2023-02-23T15:06:01.601Z,23.30
2023-02-23T15:08:31.445Z,22.90
2023-02-23T15:11:13.210Z,23.23
2023-02-23T15:13:51.221Z,22.75
2023-02-23T15:16:35.172Z,21.85
2023-02-23T15:19:04.396Z,21.65
2023-02-23T15:21:31.533Z,21.45
2023-02-23T15:24:12.870Z,23.60
2023-02-23T15:26:41.274Z,23.50
2023-02-23T15:29:11.706Z,22.40
2023-02-23T15:31:41.121Z,23.08
2023-02-23T15:34:12.662Z,23.40
2023-02-23T15:36:41.541Z,23.33
2023-02-23T15:39:18.444Z,23.42
2023-02-23T15:41:49.412Z,24.02
2023-02-23T15:44:38.321Z,24.80
2023-02-23T15:47:28.573Z,22.83
2023-02-23T15:50:10.048Z,22.25
2023-02-23T15:52:48.058Z,23.80
2023-02-23T15:55:24.982Z,24.33
2023-02-23T15:58:01.901Z,25.60
2023-02-23T16:00:42.825Z,25.63
2023-02-23T16:03:31.742Z,24.35
2023-02-23T16:06:21.633Z,26.30
2023-02-23T16:09:34.713Z,26.73
2023-02-23T16:12:15.047Z,26.65
2023-02-23T16:14:54.054Z,26.42
2023-02-23T16:17:48.627Z,26.60
2023-02-23T16:20:29.051Z,26.50
2023-02-23T16:22:58.091Z,26.25
2023-02-23T16:25:28.017Z,26.70
2023-02-23T16:28:16.180Z,26.23
2023-02-23T16:31:02.592Z,27.50
2023-02-23T16:33:42.628Z,25.85
2023-02-23T16:36:20.828Z,26.63
2023-02-23T16:39:04.353Z,27.85
2023-02-23T16:41:34.510Z,26.85
2023-02-23T16:44:05.105Z,25.35
2023-02-23T16:47:11.317Z,26.88
2023-02-23T16:49:38.352Z,26.95
2023-02-23T16:52:17.693Z,27.63
2023-02-23T16:54:47.373Z,26.92
2023-02-23T16:57:39.786Z,23.90
2023-02-23T17:00:14.486Z,22.90
2023-02-23T17:02:42.112Z,25.63
2023-02-23T17:05:20.194Z,31.48
2023-02-23T17:07:48.557Z,34.88
2023-02-23T17:10:25.926Z,30.25
2023-02-23T17:13:04.408Z,29.83
2023-02-23T17:15:47.921Z,27.65
2023-02-23T17:18:14.939Z,27.50
2023-02-23T17:20:41.718Z,24.25
2023-02-23T17:23:08.517Z,21.08
2023-02-23T17:25:35.608Z,26.35
2023-02-23T17:28:03.678Z,24.30
2023-02-23T17:30:31.241Z,28.40
2023-02-23T17:32:59.386Z,26.90
2023-02-23T17:35:26.826Z,31.55
2023-02-23T17:37:54.326Z,27.42
2023-02-23T17:40:28.930Z,52.90
2023-02-23T17:42:58.273Z,52.13
2023-02-23T17:45:26.596Z,56.83
2023-02-23T17:47:54.062Z,38.95
2023-02-23T17:50:22.120Z,27.70
2023-02-23T17:52:50.200Z,27.73
2023-02-23T17:55:18.575Z,27.60
2023-02-23T17:57:45.977Z,26.95
2023-02-23T18:00:15.309Z,24.27
2023-02-23T18:02:44.118Z,32.42
2023-02-23T18:05:12.429Z,31.48
2023-02-23T18:07:39.487Z,28.25
2023-02-23T18:10:07.312Z,28.00
2023-02-23T18:12:35.054Z,27.52
2023-02-23T18:15:02.098Z,26.45
2023-02-23T18:17:28.903Z,26.40
2023-02-23T18:19:55.946Z,27.17
2023-02-23T18:22:22.696Z,28.58
2023-02-23T18:24:49.489Z,31.02
2023-02-23T18:27:16.405Z,30.88
2023-02-23T18:29:43.194Z,31.00
2023-02-23T18:32:12.146Z,31.27
2023-02-23T18:34:39.022Z,28.75
2023-02-23T18:37:09.804Z,27.05
2023-02-23T18:39:36.816Z,28.35
2023-02-23T18:42:04.442Z,29.13
2023-02-23T18:44:33.457Z,31.00
2023-02-23T18:47:02.374Z,30.58
2023-02-23T18:49:29.232Z,28.95
2023-02-23T18:51:56.137Z,30.27
2023-02-23T18:54:25.823Z,28.58
2023-02-23T18:56:52.683Z,29.42
2023-02-23T18:59:19.464Z,29.40
2023-02-23T19:01:47.920Z,29.27
2023-02-23T19:04:15.090Z,29.85
2023-02-23T19:06:45.085Z,28.38
2023-02-23T19:09:14.254Z,26.42
2023-02-23T19:11:43.242Z,30.23
2023-02-23T19:14:16.593Z,29.67
2023-02-23T19:16:44.230Z,28.20
2023-02-23T19:19:11.173Z,28.42
2023-02-23T19:21:38.558Z,27.98
2023-02-23T19:24:07.043Z,30.17
2023-02-23T19:26:39.835Z,33.85
2023-02-23T19:29:07.122Z,35.10
2023-02-23T19:31:34.818Z,32.88
2023-02-23T19:34:04.887Z,30.38
2023-02-23T19:36:34.305Z,27.85
2023-02-23T19:39:12.729Z,30.67
2023-02-23T19:41:40.230Z,30.70
2023-02-23T19:44:07.274Z,31.98
2023-02-23T19:46:34.917Z,34.45
2023-02-23T19:49:01.804Z,32.92
2023-02-23T19:51:28.815Z,32.47
2023-02-23T19:53:58.561Z,27.75
2023-02-23T19:56:27.848Z,27.55
2023-02-23T19:58:56.426Z,27.08
2023-02-23T20:01:27.406Z,25.98
2023-02-23T20:03:56.617Z,24.92
2023-02-23T20:06:25.915Z,22.88
2023-02-23T20:08:55.011Z,22.13
2023-02-23T20:11:22.627Z,21.30
2023-02-23T20:13:53.014Z,19.08
2023-02-23T20:16:20.898Z,17.95
2023-02-23T20:18:47.855Z,28.70
2023-02-23T20:21:17.946Z,20.33
2023-02-23T20:23:46.918Z,17.00
2023-02-23T20:26:26.019Z,16.13
2023-02-23T20:28:57.429Z,15.85
2023-02-23T20:31:29.146Z,15.18
2023-02-23T20:33:58.473Z,15.73
2023-02-23T20:36:25.458Z,15.98
2023-02-23T20:38:52.595Z,15.32
2023-02-23T20:41:20.065Z,14.63
2023-02-23T20:43:47.302Z,13.75
2023-02-23T20:46:16.988Z,12.52
2023-02-23T20:48:44.178Z,12.15
2023-02-23T20:51:15.065Z,12.98
2023-02-23T20:53:46.592Z,12.57
2023-02-23T20:56:16.758Z,12.30
2023-02-23T20:58:44.521Z,12.13
2023-02-23T21:01:20.786Z,11.73
2023-02-23T21:03:51.147Z,11.80
2023-02-23T21:06:20.712Z,11.27
2023-02-23T21:08:48.845Z,11.75
2023-02-23T21:11:18.075Z,16.42
2023-02-23T21:13:45.972Z,21.02
2023-02-23T21:16:16.671Z,15.57
2023-02-23T21:18:44.058Z,10.93
2023-02-23T21:21:11.683Z,10.13
2023-02-23T21:23:43.346Z,10.55
2023-02-23T21:26:13.399Z,10.75
2023-02-23T21:28:49.233Z,40.65
2023-02-23T21:31:16.408Z,23.05
2023-02-23T21:33:44.164Z,17.95
2023-02-23T21:36:12.467Z,17.83
2023-02-23T21:38:43.155Z,15.13
2023-02-23T21:41:13.232Z,13.00
2023-02-23T21:43:42.414Z,12.80
2023-02-23T21:46:12.951Z,10.52
2023-02-23T21:48:40.028Z,11.45
2023-02-23T21:51:11.417Z,10.45
2023-02-23T21:53:39.087Z,9.32
2023-02-23T21:56:16.493Z,9.88
2023-02-23T21:58:51.674Z,9.13
2023-02-23T22:01:26.431Z,9.80
2023-02-23T22:03:54.967Z,9.70
2023-02-23T22:06:26.061Z,10.50
2023-02-23T22:08:53.491Z,9.80
2023-02-23T22:11:24.881Z,10.07
2023-02-23T22:13:59.265Z,10.98
2023-02-23T22:16:33.480Z,9.60
2023-02-23T22:19:04.041Z,10.45
2023-02-23T22:21:34.076Z,10.63
2023-02-23T22:24:05.252Z,8.98
2023-02-23T22:26:38.060Z,9.88
2023-02-23T22:29:06.801Z,10.95
2023-02-23T22:31:34.114Z,10.90
2023-02-23T22:34:01.174Z,10.75
2023-02-23T22:36:29.163Z,10.90
2023-02-23T22:38:59.716Z,11.75
2023-02-23T22:41:30.753Z,11.90
2023-02-23T22:43:58.077Z,12.23
2023-02-23T22:46:26.128Z,13.15
2023-02-23T22:48:53.405Z,13.13
2023-02-23T22:51:20.932Z,12.40
2023-02-23T22:53:48.012Z,12.00
2023-02-23T22:56:14.991Z,11.35
2023-02-23T22:58:42.216Z,11.70
2023-02-23T23:01:11.663Z,11.63
2023-02-23T23:03:46.154Z,11.18
2023-02-23T23:06:22.396Z,12.10
2023-02-23T23:08:52.190Z,11.98
2023-02-23T23:11:23.493Z,12.63
2023-02-23T23:13:54.592Z,12.50
2023-02-23T23:16:32.001Z,12.45
2023-02-23T23:19:12.080Z,11.98
2023-02-23T23:21:41.494Z,11.85
2023-02-23T23:24:13.112Z,13.15
2023-02-23T23:26:41.173Z,13.50
2023-02-23T23:29:13.045Z,13.23
2023-02-23T23:31:45.525Z,13.73
2023-02-23T23:34:16.371Z,12.48
2023-02-23T23:36:49.260Z,11.57
2023-02-23T23:39:18.090Z,12.85
2023-02-23T23:41:48.886Z,12.90
2023-02-23T23:44:24.901Z,13.25
2023-02-23T23:46:53.039Z,14.05
2023-02-23T23:49:25.772Z,13.88
2023-02-23T23:51:58.893Z,12.93
2023-02-23T23:57:04.278Z,13.25
2023-02-23T23:59:32.567Z,10.98
